createdAt,value
2018-03-20T00:02:04.214Z,35.90
2018-03-20T00:04:31.835Z,34.60
2018-03-20T00:06:59.471Z,37.10
2018-03-20T00:09:27.110Z,32.90
2018-03-20T00:11:54.756Z,33.42
2018-03-20T00:14:22.395Z,33.05
2018-03-20T00:16:50.767Z,33.88
2018-03-20T00:19:19.138Z,36.72
2018-03-20T00:21:47.519Z,35.92
2018-03-20T00:24:15.090Z,36.90
2018-03-20T00:26:43.896Z,36.25
2018-03-20T00:29:11.516Z,39.28
2018-03-20T00:31:39.126Z,33.63
2018-03-20T00:34:06.732Z,33.67
2018-03-20T00:36:34.364Z,32.58
2018-03-20T00:39:02.000Z,37.05
2018-03-20T00:41:29.648Z,37.00
2018-03-20T00:43:58.030Z,41.40
2018-03-20T00:46:25.667Z,41.53
2018-03-20T00:48:53.265Z,35.63
2018-03-20T00:51:20.914Z,34.05
2018-03-20T00:53:49.251Z,33.78
2018-03-20T00:56:20.861Z,37.05
2018-03-20T00:58:48.449Z,35.95
2018-03-20T01:01:16.038Z,37.95
2018-03-20T01:03:43.655Z,35.35
2018-03-20T01:06:11.276Z,35.67
2018-03-20T01:08:40.411Z,34.63
2018-03-20T01:11:08.018Z,39.38
2018-03-20T01:13:35.623Z,35.42
2018-03-20T01:16:03.251Z,36.47
2018-03-20T01:18:31.632Z,39.50
2018-03-20T01:21:00.027Z,37.47
2018-03-20T01:23:27.621Z,38.20
2018-03-20T01:25:55.228Z,34.75
2018-03-20T01:28:23.607Z,38.80
2018-03-20T01:30:52.022Z,36.38
2018-03-20T01:33:19.579Z,33.90
2018-03-20T01:35:47.134Z,37.78
2018-03-20T01:38:14.761Z,38.33
2018-03-20T01:40:42.344Z,33.67
2018-03-20T01:43:09.974Z,37.70
2018-03-20T01:45:37.569Z,36.22
2018-03-20T01:48:05.191Z,37.10
2018-03-20T01:50:32.806Z,36.47
2018-03-20T01:53:12.721Z,41.20
2018-03-20T01:55:41.069Z,37.88
2018-03-20T01:58:08.674Z,35.22
2018-03-20T02:00:36.302Z,36.35
2018-03-20T02:03:03.890Z,37.50
2018-03-20T02:05:32.288Z,32.80
2018-03-20T02:07:59.882Z,34.58
2018-03-20T02:10:27.503Z,34.90
2018-03-20T02:12:55.126Z,34.88
2018-03-20T02:15:22.742Z,38.15
2018-03-20T02:17:50.354Z,35.35
2018-03-20T02:20:17.995Z,39.17
2018-03-20T02:22:45.579Z,35.40
2018-03-20T02:25:13.211Z,36.67
2018-03-20T02:27:40.865Z,35.03
2018-03-20T02:30:08.502Z,40.50
2018-03-20T02:32:36.096Z,36.72
2018-03-20T02:35:03.726Z,34.50
2018-03-20T02:37:31.348Z,37.80
2018-03-20T02:39:59.703Z,33.00
2018-03-20T02:42:27.333Z,37.70
2018-03-20T02:44:54.912Z,34.72
2018-03-20T02:47:22.584Z,34.15
2018-03-20T02:49:51.055Z,34.15
2018-03-20T02:52:20.653Z,34.13
2018-03-20T02:54:48.251Z,33.80
2018-03-20T02:57:15.906Z,38.50
2018-03-20T02:59:43.551Z,37.30
2018-03-20T03:02:12.551Z,38.65
2018-03-20T03:04:40.148Z,39.97
2018-03-20T03:07:07.733Z,39.95
2018-03-20T03:09:35.368Z,41.80
2018-03-20T03:12:02.975Z,39.60
2018-03-20T03:14:30.571Z,38.70
2018-03-20T03:16:58.978Z,38.45
2018-03-20T03:19:26.569Z,35.95
2018-03-20T03:21:54.160Z,38.15
2018-03-20T03:24:22.582Z,38.50
2018-03-20T03:26:50.167Z,40.55
2018-03-20T03:29:17.792Z,35.20
2018-03-20T03:31:45.432Z,38.47
2018-03-20T03:34:13.857Z,37.45
2018-03-20T03:36:41.509Z,36.65
2018-03-20T03:39:09.093Z,39.63
2018-03-20T03:41:36.703Z,38.50
2018-03-20T03:44:04.317Z,45.03
2018-03-20T03:46:31.937Z,43.10
2018-03-20T03:48:59.555Z,37.83
2018-03-20T03:51:27.184Z,38.72
2018-03-20T03:53:54.847Z,39.45
2018-03-20T03:56:22.460Z,42.08
2018-03-20T03:58:50.086Z,40.58
2018-03-20T04:01:18.401Z,39.95
2018-03-20T04:03:46.004Z,41.70
2018-03-20T04:06:13.606Z,40.33
2018-03-20T04:08:41.256Z,42.65
2018-03-20T04:11:08.888Z,42.90
2018-03-20T04:13:36.557Z,39.65
2018-03-20T04:16:04.200Z,40.88
2018-03-20T04:18:31.789Z,36.42
2018-03-20T04:20:59.403Z,38.63
2018-03-20T04:23:27.016Z,45.05
2018-03-20T04:25:54.660Z,40.33
2018-03-20T04:28:22.250Z,40.05
2018-03-20T04:30:49.873Z,42.72
2018-03-20T04:33:17.436Z,43.13
2018-03-20T04:35:45.038Z,42.17
2018-03-20T04:38:12.662Z,40.08
2018-03-20T04:40:40.269Z,39.58
2018-03-20T04:43:08.674Z,40.85
2018-03-20T04:45:36.273Z,39.75
2018-03-20T04:48:03.911Z,39.08
2018-03-20T04:50:31.646Z,37.63
2018-03-20T04:52:59.283Z,41.00
2018-03-20T04:55:26.890Z,38.58
2018-03-20T04:57:54.516Z,41.30
2018-03-20T05:00:22.179Z,39.03
2018-03-20T05:02:50.567Z,39.78
2018-03-20T05:05:18.131Z,46.72
2018-03-20T05:07:45.711Z,39.78
2018-03-20T05:10:13.331Z,36.42
2018-03-20T05:12:41.692Z,37.58
2018-03-20T05:15:09.312Z,39.05
2018-03-20T05:17:36.922Z,39.92
2018-03-20T05:20:24.112Z,38.60
2018-03-20T05:22:57.495Z,39.60
2018-03-20T05:25:25.098Z,39.95
2018-03-20T05:27:53.486Z,40.88
2018-03-20T05:30:21.847Z,37.55
2018-03-20T05:32:49.461Z,43.33
2018-03-20T05:35:17.105Z,39.38
2018-03-20T05:37:44.712Z,40.90
2018-03-20T05:40:12.306Z,43.65
2018-03-20T05:42:40.699Z,48.85
2018-03-20T05:45:08.292Z,49.38
2018-03-20T05:47:42.283Z,52.47
2018-03-20T05:50:15.539Z,42.97
2018-03-20T05:52:43.772Z,43.72
2018-03-20T05:55:11.363Z,42.95
2018-03-20T05:57:38.966Z,39.50
2018-03-20T06:00:06.575Z,40.05
2018-03-20T06:02:34.196Z,40.92
2018-03-20T06:05:01.761Z,39.40
2018-03-20T06:07:29.416Z,44.30
2018-03-20T06:09:57.012Z,61.30
2018-03-20T06:12:24.597Z,71.22
2018-03-20T06:14:52.269Z,59.88
2018-03-20T06:17:19.899Z,65.78
2018-03-20T06:19:47.515Z,49.03
2018-03-20T06:22:15.094Z,43.25
2018-03-20T06:24:43.882Z,43.08
2018-03-20T06:27:11.472Z,79.68
2018-03-20T06:29:39.083Z,95.32
2018-03-20T06:32:07.323Z,78.70
2018-03-20T06:37:38.323Z,55.42
2018-03-20T06:40:05.910Z,63.10
2018-03-20T06:42:33.555Z,106.55
2018-03-20T06:45:01.148Z,44.38
2018-03-20T06:47:28.839Z,38.17
2018-03-20T06:49:57.213Z,51.60
2018-03-20T06:52:25.620Z,39.10
2018-03-20T06:54:53.225Z,37.65
2018-03-20T06:57:20.822Z,39.58
2018-03-20T06:59:49.190Z,38.75
2018-03-20T07:02:17.732Z,36.90
2018-03-20T07:04:45.389Z,71.40
2018-03-20T07:07:12.986Z,35.30
2018-03-20T07:09:40.614Z,37.90
2018-03-20T07:12:08.232Z,39.53
2018-03-20T07:14:35.892Z,38.55
2018-03-20T07:17:03.530Z,35.15
2018-03-20T07:19:31.135Z,34.45
2018-03-20T07:21:58.758Z,34.42
2018-03-20T07:24:27.126Z,34.85
2018-03-20T07:26:55.518Z,41.20
2018-03-20T07:29:23.872Z,39.60
2018-03-20T07:31:51.487Z,34.45
2018-03-20T07:34:19.135Z,34.80
2018-03-20T07:36:46.749Z,35.97
2018-03-20T07:39:14.331Z,39.42
2018-03-20T07:41:42.692Z,36.33
2018-03-20T07:44:10.281Z,36.00
2018-03-20T07:46:38.628Z,39.00
2018-03-20T07:49:06.262Z,36.25
2018-03-20T07:51:33.874Z,38.85
2018-03-20T07:54:01.483Z,34.45
2018-03-20T07:56:29.128Z,39.72
2018-03-20T07:58:56.745Z,36.25
2018-03-20T08:01:25.127Z,34.88
2018-03-20T08:03:53.482Z,35.35
2018-03-20T08:06:21.097Z,37.58
2018-03-20T08:08:48.704Z,36.15
2018-03-20T08:11:16.307Z,36.53
2018-03-20T08:13:43.950Z,36.00
2018-03-20T08:16:11.583Z,32.83
2018-03-20T08:18:39.186Z,35.88
2018-03-20T08:21:06.739Z,39.92
2018-03-20T08:23:35.131Z,34.25
2018-03-20T08:26:02.760Z,37.95
2018-03-20T08:28:30.371Z,34.40
2018-03-20T08:30:57.998Z,39.22
2018-03-20T08:33:25.638Z,32.70
2018-03-20T08:35:54.279Z,35.40
2018-03-20T08:38:21.918Z,32.28
2018-03-20T08:40:49.594Z,34.23
2018-03-20T08:43:17.159Z,36.40
2018-03-20T08:45:44.757Z,34.17
2018-03-20T08:48:12.394Z,39.20
2018-03-20T08:50:40.008Z,37.93
2018-03-20T08:53:07.634Z,35.63
2018-03-20T08:55:35.259Z,34.43
2018-03-20T08:58:02.871Z,33.50
2018-03-20T09:00:30.521Z,38.10
2018-03-20T09:02:58.114Z,34.80
2018-03-20T09:05:25.728Z,34.97
2018-03-20T09:07:53.303Z,36.10
2018-03-20T09:10:20.899Z,35.80
2018-03-20T09:12:48.484Z,37.27
2018-03-20T09:15:16.052Z,37.10
2018-03-20T09:17:43.692Z,37.00
2018-03-20T09:20:11.292Z,40.07
2018-03-20T09:22:38.934Z,33.30
2018-03-20T09:25:06.559Z,32.70
2018-03-20T09:27:34.335Z,34.93
2018-03-20T09:30:01.931Z,34.13
2018-03-20T09:32:29.559Z,33.03
2018-03-20T09:34:57.107Z,36.57
2018-03-20T09:37:24.671Z,33.77
2018-03-20T09:39:52.322Z,35.03
2018-03-20T09:42:19.949Z,32.30
2018-03-20T09:44:48.351Z,30.00
2018-03-20T09:47:16.706Z,33.80
2018-03-20T09:49:44.274Z,32.17
2018-03-20T09:52:11.860Z,33.73
2018-03-20T09:54:39.429Z,33.80
2018-03-20T09:57:07.014Z,32.90
2018-03-20T09:59:34.635Z,34.10
2018-03-20T10:02:03.232Z,33.03
2018-03-20T10:04:30.834Z,32.90
2018-03-20T10:06:58.440Z,34.40
2018-03-20T10:09:26.811Z,33.77
2018-03-20T10:11:55.163Z,34.33
2018-03-20T10:14:22.730Z,33.73
2018-03-20T10:16:51.108Z,32.60
2018-03-20T10:19:18.715Z,30.97
2018-03-20T10:21:46.292Z,31.50
2018-03-20T10:24:13.867Z,33.00
2018-03-20T10:26:41.508Z,29.90
2018-03-20T10:29:09.148Z,34.83
2018-03-20T10:31:36.750Z,30.83
2018-03-20T10:34:04.373Z,29.57
2018-03-20T10:36:32.021Z,32.00
2018-03-20T10:39:00.397Z,31.23
2018-03-20T10:41:28.060Z,31.50
2018-03-20T10:43:56.451Z,34.57
2018-03-20T10:46:24.016Z,32.20
2018-03-20T10:48:51.604Z,31.80
2018-03-20T10:51:19.216Z,28.10
2018-03-20T10:53:47.599Z,32.77
2018-03-20T10:56:15.944Z,30.33
2018-03-20T10:58:43.539Z,36.87
2018-03-20T11:01:16.834Z,31.27
2018-03-20T11:03:45.209Z,33.60
2018-03-20T11:06:13.585Z,31.23
2018-03-20T11:08:41.183Z,32.77
2018-03-20T11:11:08.788Z,32.23
2018-03-20T11:13:36.361Z,29.30
2018-03-20T11:16:04.750Z,27.57
2018-03-20T11:18:32.333Z,29.93
2018-03-20T11:20:59.968Z,30.57
2018-03-20T11:23:28.771Z,27.67
2018-03-20T11:25:56.367Z,35.43
2018-03-20T11:28:23.945Z,32.80
2018-03-20T11:30:51.611Z,31.83
2018-03-20T11:33:20.013Z,35.00
2018-03-20T11:35:47.614Z,34.57
2018-03-20T11:38:15.235Z,33.63
2018-03-20T11:40:43.587Z,31.60
2018-03-20T11:43:11.193Z,29.77
2018-03-20T11:45:38.831Z,29.00
2018-03-20T11:48:07.161Z,29.03
2018-03-20T11:50:34.785Z,30.37
2018-03-20T11:53:02.362Z,28.40
2018-03-20T11:55:29.927Z,27.50
2018-03-20T11:57:57.492Z,30.87
2018-03-20T12:00:25.102Z,28.10
2018-03-20T12:02:53.470Z,27.87
2018-03-20T12:05:21.074Z,27.63
2018-03-20T12:07:54.363Z,27.10
2018-03-20T12:10:21.989Z,32.80
2018-03-20T12:12:50.337Z,30.53
2018-03-20T12:15:17.978Z,31.97
2018-03-20T12:17:45.587Z,33.87
2018-03-20T12:20:13.991Z,31.73
2018-03-20T12:22:41.618Z,31.27
2018-03-20T12:25:09.179Z,31.07
2018-03-20T12:27:37.527Z,29.60
2018-03-20T12:30:05.123Z,29.17
2018-03-20T12:32:33.525Z,28.73
2018-03-20T12:35:01.779Z,29.60
2018-03-20T12:37:30.195Z,27.80
2018-03-20T12:39:57.823Z,32.63
2018-03-20T12:42:26.224Z,31.03
2018-03-20T12:44:53.794Z,34.43
2018-03-20T12:47:21.414Z,29.83
2018-03-20T12:49:59.584Z,30.02
2018-03-20T12:52:27.178Z,30.10
2018-03-20T12:54:55.557Z,30.75
2018-03-20T12:57:23.962Z,31.15
2018-03-20T12:59:51.595Z,24.20
2018-03-20T13:02:19.954Z,14.68
2018-03-20T13:04:47.631Z,15.60
2018-03-20T13:07:15.220Z,18.12
2018-03-20T13:09:42.835Z,17.75
2018-03-20T13:12:11.068Z,15.00
2018-03-20T13:14:38.727Z,15.73
2018-03-20T13:17:06.331Z,12.35
2018-03-20T13:19:33.911Z,13.80
2018-03-20T13:22:01.524Z,18.15
2018-03-20T13:24:29.160Z,14.60
2018-03-20T13:26:56.760Z,15.40
2018-03-20T13:29:24.378Z,12.45
2018-03-20T13:31:51.950Z,13.85
2018-03-20T13:34:19.539Z,13.25
2018-03-20T13:36:47.159Z,12.88
2018-03-20T13:39:15.564Z,13.27
2018-03-20T13:41:43.154Z,16.75
2018-03-20T13:44:10.763Z,14.43
2018-03-20T13:46:38.349Z,12.50
2018-03-20T13:49:05.997Z,14.35
2018-03-20T13:51:33.558Z,11.10
2018-03-20T13:54:01.156Z,14.77
2018-03-20T13:56:28.712Z,15.93
2018-03-20T13:58:56.912Z,14.05
2018-03-20T14:01:25.283Z,14.73
2018-03-20T14:03:52.870Z,15.07
2018-03-20T14:06:20.495Z,14.35
2018-03-20T14:08:48.116Z,17.58
2018-03-20T14:11:15.716Z,17.00
2018-03-20T14:13:43.355Z,14.70
2018-03-20T14:16:10.951Z,17.05
2018-03-20T14:18:38.578Z,14.43
2018-03-20T14:21:06.239Z,17.58
2018-03-20T14:23:34.533Z,17.50
2018-03-20T14:26:02.181Z,23.00
2018-03-20T14:28:30.596Z,23.35
2018-03-20T14:30:58.986Z,18.80
2018-03-20T14:33:27.345Z,16.73
2018-03-20T14:35:54.947Z,20.02
2018-03-20T14:38:22.534Z,20.60
2018-03-20T14:40:50.175Z,22.08
2018-03-20T14:43:17.749Z,17.08
2018-03-20T14:45:45.379Z,18.05
2018-03-20T14:48:12.990Z,17.77
2018-03-20T14:50:40.567Z,15.65
2018-03-20T14:53:08.178Z,17.45
2018-03-20T14:55:35.751Z,16.77
2018-03-20T14:58:03.380Z,21.15
2018-03-20T15:00:31.047Z,17.75
2018-03-20T15:02:58.638Z,19.65
2018-03-20T15:05:26.259Z,20.25
2018-03-20T15:07:53.877Z,18.85
2018-03-20T15:10:21.472Z,21.23
2018-03-20T15:12:49.840Z,22.87
2018-03-20T15:15:18.199Z,23.67
2018-03-20T15:17:45.752Z,29.55
2018-03-20T15:20:13.349Z,24.08
2018-03-20T15:22:41.687Z,26.45
2018-03-20T15:25:09.322Z,22.73
2018-03-20T15:27:36.940Z,24.98
2018-03-20T15:30:04.566Z,20.50
2018-03-20T15:32:32.140Z,23.02
2018-03-20T15:35:00.971Z,20.77
2018-03-20T15:37:28.574Z,23.70
2018-03-20T15:39:56.227Z,21.37
2018-03-20T15:42:23.863Z,23.20
2018-03-20T15:44:51.423Z,26.33
2018-03-20T15:47:19.030Z,19.80
2018-03-20T15:49:46.650Z,21.25
2018-03-20T15:52:14.230Z,24.05
2018-03-20T15:54:41.866Z,23.95
2018-03-20T15:57:09.467Z,21.37
2018-03-20T15:59:37.053Z,20.05
2018-03-20T16:02:05.447Z,20.00
2018-03-20T16:04:33.021Z,23.80
2018-03-20T16:07:00.644Z,26.05
2018-03-20T16:09:31.458Z,23.52
2018-03-20T16:11:59.102Z,23.50
2018-03-20T16:14:26.742Z,22.95
2018-03-20T16:16:54.383Z,21.30
2018-03-20T16:19:21.948Z,24.58
2018-03-20T16:21:49.565Z,23.38
2018-03-20T16:24:17.227Z,27.15
2018-03-20T16:26:44.834Z,22.55
2018-03-20T16:29:12.476Z,22.73
2018-03-20T16:31:40.089Z,21.60
2018-03-20T16:34:11.638Z,24.48
2018-03-20T16:36:39.235Z,26.42
2018-03-20T16:39:07.710Z,26.67
2018-03-20T16:41:35.335Z,25.90
2018-03-20T16:44:03.010Z,25.80
2018-03-20T16:46:30.640Z,23.33
2018-03-20T16:48:58.289Z,40.70
2018-03-20T16:54:43.190Z,29.33
2018-03-20T16:57:10.802Z,28.23
2018-03-20T16:59:38.453Z,34.42
2018-03-20T17:02:06.045Z,34.53
2018-03-20T17:04:40.657Z,29.92
2018-03-20T17:07:08.291Z,31.62
2018-03-20T17:09:35.903Z,33.55
2018-03-20T17:12:03.470Z,31.50
2018-03-20T17:14:31.041Z,35.30
2018-03-20T17:16:58.682Z,33.90
2018-03-20T17:19:26.324Z,29.08
2018-03-20T17:21:53.876Z,28.83
2018-03-20T17:24:21.533Z,32.78
2018-03-20T17:26:49.148Z,209.05
2018-03-20T17:29:16.777Z,207.82
2018-03-20T17:31:45.208Z,53.45
2018-03-20T17:34:12.810Z,261.33
2018-03-20T17:36:41.220Z,236.40
2018-03-20T17:39:10.773Z,70.80
2018-03-20T17:41:38.372Z,54.22
2018-03-20T17:44:05.968Z,35.88
2018-03-20T17:46:33.606Z,37.78
2018-03-20T17:49:01.245Z,40.38
2018-03-20T17:51:29.628Z,48.47
2018-03-20T17:53:57.234Z,45.10
2018-03-20T17:56:24.888Z,47.38
2018-03-20T17:58:52.495Z,34.58
2018-03-20T18:01:35.685Z,35.50
2018-03-20T18:04:03.330Z,38.70
2018-03-20T18:06:30.970Z,42.17
2018-03-20T18:09:10.315Z,36.00
2018-03-20T18:11:38.755Z,48.40
2018-03-20T18:14:06.376Z,53.55
2018-03-20T18:16:33.963Z,45.80
2018-03-20T18:19:01.562Z,45.80
2018-03-20T18:21:29.205Z,42.53
2018-03-20T18:23:57.587Z,43.63
2018-03-20T18:26:28.045Z,42.17
2018-03-20T18:31:49.668Z,48.70
2018-03-20T18:34:17.240Z,44.45
2018-03-20T18:36:44.858Z,39.53
2018-03-20T18:39:12.499Z,46.60
2018-03-20T18:41:40.139Z,45.65
2018-03-20T18:44:07.783Z,45.88
2018-03-20T18:46:35.402Z,44.92
2018-03-20T18:49:03.021Z,63.60
2018-03-20T18:51:31.782Z,45.25
2018-03-20T18:53:59.388Z,48.30
2018-03-20T18:56:27.034Z,48.03
2018-03-20T18:58:54.651Z,45.78
2018-03-20T19:01:26.380Z,42.90
2018-03-20T19:03:55.087Z,49.92
2018-03-20T19:06:23.452Z,51.35
2018-03-20T19:08:51.810Z,52.58
2018-03-20T19:11:19.450Z,46.28
2018-03-20T19:13:47.129Z,50.45
2018-03-20T19:16:14.802Z,42.38
2018-03-20T19:18:42.414Z,43.72
2018-03-20T19:21:10.020Z,54.58
2018-03-20T19:23:37.629Z,49.30
2018-03-20T19:26:05.276Z,53.00
2018-03-20T19:28:33.646Z,51.40
2018-03-20T19:31:01.271Z,49.60
2018-03-20T19:33:28.926Z,52.58
2018-03-20T19:35:56.543Z,45.92
2018-03-20T19:38:24.156Z,52.78
2018-03-20T19:40:51.849Z,47.75
2018-03-20T19:43:19.458Z,62.65
2018-03-20T19:45:47.070Z,61.67
2018-03-20T19:48:15.422Z,58.63
2018-03-20T19:50:43.034Z,54.83
2018-03-20T19:53:10.635Z,55.08
2018-03-20T19:55:39.087Z,51.17
2018-03-20T19:58:06.753Z,58.58
2018-03-20T20:00:34.393Z,53.97
2018-03-20T20:03:02.065Z,51.53
2018-03-20T20:05:29.666Z,55.70
2018-03-20T20:07:57.317Z,60.08
2018-03-20T20:10:24.975Z,78.28
2018-03-20T20:12:52.641Z,65.37
2018-03-20T20:15:20.281Z,55.50
2018-03-20T20:17:47.877Z,53.20
2018-03-20T20:20:15.506Z,81.57
2018-03-20T20:22:43.147Z,55.63
2018-03-20T20:25:10.710Z,58.78
2018-03-20T20:27:38.321Z,53.92
2018-03-20T20:30:05.960Z,65.20
2018-03-20T20:32:34.106Z,63.90
2018-03-20T20:35:01.759Z,101.68
2018-03-20T20:37:29.358Z,55.95
2018-03-20T20:39:57.021Z,58.70
2018-03-20T20:42:24.631Z,56.17
2018-03-20T20:44:52.290Z,68.65
2018-03-20T20:47:20.687Z,55.72
2018-03-20T20:49:48.300Z,55.47
2018-03-20T20:52:15.913Z,56.10
2018-03-20T20:54:43.572Z,53.05
2018-03-20T20:57:11.232Z,52.92
2018-03-20T20:59:38.874Z,52.38
2018-03-20T21:02:07.215Z,51.22
2018-03-20T21:04:34.856Z,58.03
2018-03-20T21:07:02.462Z,55.95
2018-03-20T21:09:30.080Z,55.00
2018-03-20T21:11:57.654Z,53.85
2018-03-20T21:14:25.378Z,49.85
2018-03-20T21:16:53.715Z,62.25
2018-03-20T21:19:21.316Z,55.47
2018-03-20T21:21:48.936Z,55.42
2018-03-20T21:24:16.584Z,57.90
2018-03-20T21:26:44.183Z,55.38
2018-03-20T21:29:11.804Z,54.80
2018-03-20T21:31:39.414Z,60.58
2018-03-20T21:34:07.028Z,59.05
2018-03-20T21:36:34.624Z,59.60
2018-03-20T21:39:02.962Z,54.40
2018-03-20T21:41:30.544Z,58.85
2018-03-20T21:43:58.919Z,54.30
2018-03-20T21:46:26.574Z,60.63
2018-03-20T21:48:54.162Z,59.80
2018-03-20T21:51:22.563Z,61.22
2018-03-20T21:53:50.167Z,60.40
2018-03-20T21:56:17.788Z,56.65
2018-03-20T21:58:45.419Z,52.75
2018-03-20T22:01:13.758Z,58.03
2018-03-20T22:03:41.412Z,56.65
2018-03-20T22:06:09.039Z,62.03
2018-03-20T22:08:36.680Z,60.00
2018-03-20T22:11:04.264Z,59.47
2018-03-20T22:13:31.871Z,62.38
2018-03-20T22:15:59.491Z,60.60
2018-03-20T22:18:27.076Z,58.22
2018-03-20T22:20:54.673Z,58.00
2018-03-20T22:23:23.043Z,57.42
2018-03-20T22:25:50.687Z,58.15
2018-03-20T22:28:18.323Z,63.53
2018-03-20T22:30:46.134Z,57.62
2018-03-20T22:33:14.511Z,56.17
2018-03-20T22:35:47.065Z,54.60
2018-03-20T22:38:14.660Z,55.72
2018-03-20T22:40:42.286Z,50.60
2018-03-20T22:43:10.702Z,51.80
2018-03-20T22:45:39.087Z,55.35
2018-03-20T22:48:06.695Z,49.10
2018-03-20T22:50:34.295Z,62.90
2018-03-20T22:53:02.657Z,57.70
2018-03-20T22:55:30.291Z,56.25
2018-03-20T22:57:57.889Z,50.78
2018-03-20T23:00:30.120Z,49.03
2018-03-20T23:02:57.715Z,49.55
2018-03-20T23:05:26.074Z,57.75
2018-03-20T23:07:53.706Z,53.17
2018-03-20T23:10:21.375Z,53.13
2018-03-20T23:12:48.988Z,53.75
2018-03-20T23:15:17.394Z,51.47
2018-03-20T23:17:45.020Z,47.30
2018-03-20T23:20:13.389Z,50.60
2018-03-20T23:22:40.972Z,48.83
2018-03-20T23:25:09.329Z,46.53
2018-03-20T23:27:36.927Z,50.15
2018-03-20T23:30:04.520Z,46.37
2018-03-20T23:32:32.127Z,46.17
2018-03-20T23:35:00.487Z,42.72
2018-03-20T23:37:28.100Z,45.45
2018-03-20T23:39:55.723Z,46.72
2018-03-20T23:42:24.067Z,42.50
2018-03-20T23:44:51.671Z,40.40
2018-03-20T23:47:20.008Z,45.95
2018-03-20T23:49:47.579Z,46.33
2018-03-20T23:52:15.157Z,41.25
2018-03-20T23:54:42.775Z,40.90
2018-03-20T23:57:10.343Z,41.40
2018-03-20T23:59:37.941Z,42.47
